sensor_id;sensor_type;location;lat;lon;timestamp;P1;durP1;ratioP1;P2;durP2;ratioP2
12177;SDS011;6152;48.728;9.256;2023-08-31T00:00:14;1.10;;;1.00;;
12177;SDS011;6152;48.728;9.256;2023-08-31T00:02:40;2.35;;;1.50;;
12177;SDS011;6152;48.728;9.256;2023-08-31T00:05:07;3.75;;;2.45;;
12177;SDS011;6152;48.728;9.256;2023-08-31T00:07:33;2.10;;;1.30;;
12177;SDS011;6152;48.728;9.256;2023-08-31T00:10:02;3.47;;;1.85;;
12177;SDS011;6152;48.728;9.256;2023-08-31T00:12:34;1.63;;;1.30;;
12177;SDS011;6152;48.728;9.256;2023-08-31T00:15:01;2.38;;;1.45;;
12177;SDS011;6152;48.728;9.256;2023-08-31T00:17:30;1.23;;;1.13;;
12177;SDS011;6152;48.728;9.256;2023-08-31T00:19:56;2.17;;;1.63;;
12177;SDS011;6152;48.728;9.256;2023-08-31T00:22:22;2.28;;;1.42;;
12177;SDS011;6152;48.728;9.256;2023-08-31T00:24:49;2.08;;;1.60;;
12177;SDS011;6152;48.728;9.256;2023-08-31T00:27:16;1.67;;;1.30;;
12177;SDS011;6152;48.728;9.256;2023-08-31T00:29:42;3.53;;;1.50;;
12177;SDS011;6152;48.728;9.256;2023-08-31T00:32:14;5.00;;;1.70;;
12177;SDS011;6152;48.728;9.256;2023-08-31T00:34:40;2.05;;;1.42;;
12177;SDS011;6152;48.728;9.256;2023-08-31T00:37:07;1.60;;;1.23;;
12177;SDS011;6152;48.728;9.256;2023-08-31T00:39:33;1.65;;;1.55;;
12177;SDS011;6152;48.728;9.256;2023-08-31T00:41:59;2.42;;;1.60;;
12177;SDS011;6152;48.728;9.256;2023-08-31T00:44:25;2.80;;;1.60;;
12177;SDS011;6152;48.728;9.256;2023-08-31T00:46:52;1.95;;;1.73;;
12177;SDS011;6152;48.728;9.256;2023-08-31T00:49:19;2.28;;;2.00;;
12177;SDS011;6152;48.728;9.256;2023-08-31T00:51:46;2.88;;;2.00;;
12177;SDS011;6152;48.728;9.256;2023-08-31T00:54:14;5.55;;;2.10;;
12177;SDS011;6152;48.728;9.256;2023-08-31T00:56:44;3.15;;;2.17;;
12177;SDS011;6152;48.728;9.256;2023-08-31T00:59:10;2.38;;;1.80;;
12177;SDS011;6152;48.728;9.256;2023-08-31T01:01:37;3.03;;;2.10;;
12177;SDS011;6152;48.728;9.256;2023-08-31T01:04:16;4.75;;;1.90;;
12177;SDS011;6152;48.728;9.256;2023-08-31T01:10:14;3.50;;;1.90;;
12177;SDS011;6152;48.728;9.256;2023-08-31T01:12:52;3.45;;;2.30;;
12177;SDS011;6152;48.728;9.256;2023-08-31T01:15:41;1.77;;;1.63;;
12177;SDS011;6152;48.728;9.256;2023-08-31T01:18:15;4.90;;;2.17;;
12177;SDS011;6152;48.728;9.256;2023-08-31T01:20:50;4.57;;;1.58;;
12177;SDS011;6152;48.728;9.256;2023-08-31T01:23:25;2.50;;;1.90;;
12177;SDS011;6152;48.728;9.256;2023-08-31T01:25:59;4.13;;;1.85;;
12177;SDS011;6152;48.728;9.256;2023-08-31T01:28:26;4.68;;;2.00;;
12177;SDS011;6152;48.728;9.256;2023-08-31T01:30:53;1.95;;;1.70;;
12177;SDS011;6152;48.728;9.256;2023-08-31T01:33:19;3.08;;;1.73;;
12177;SDS011;6152;48.728;9.256;2023-08-31T01:35:46;4.10;;;2.08;;
12177;SDS011;6152;48.728;9.256;2023-08-31T01:38:18;2.97;;;1.80;;
12177;SDS011;6152;48.728;9.256;2023-08-31T01:40:52;4.25;;;1.80;;
12177;SDS011;6152;48.728;9.256;2023-08-31T01:43:25;2.10;;;1.90;;
12177;SDS011;6152;48.728;9.256;2023-08-31T01:45:52;2.38;;;1.98;;
12177;SDS011;6152;48.728;9.256;2023-08-31T01:48:19;4.05;;;2.22;;
12177;SDS011;6152;48.728;9.256;2023-08-31T01:50:46;5.38;;;2.20;;
12177;SDS011;6152;48.728;9.256;2023-08-31T01:53:12;4.15;;;2.20;;
12177;SDS011;6152;48.728;9.256;2023-08-31T01:55:38;3.28;;;2.03;;
12177;SDS011;6152;48.728;9.256;2023-08-31T01:58:04;2.60;;;2.17;;
12177;SDS011;6152;48.728;9.256;2023-08-31T02:00:30;2.40;;;2.20;;
12177;SDS011;6152;48.728;9.256;2023-08-31T02:02:59;2.40;;;2.20;;
12177;SDS011;6152;48.728;9.256;2023-08-31T02:05:26;3.00;;;2.30;;
12177;SDS011;6152;48.728;9.256;2023-08-31T02:07:52;2.20;;;2.00;;
12177;SDS011;6152;48.728;9.256;2023-08-31T02:10:19;2.15;;;1.95;;
12177;SDS011;6152;48.728;9.256;2023-08-31T02:12:45;2.28;;;1.80;;
12177;SDS011;6152;48.728;9.256;2023-08-31T02:15:11;3.50;;;2.10;;
12177;SDS011;6152;48.728;9.256;2023-08-31T02:17:37;3.63;;;1.55;;
12177;SDS011;6152;48.728;9.256;2023-08-31T02:20:03;2.90;;;1.80;;
12177;SDS011;6152;48.728;9.256;2023-08-31T02:22:33;2.10;;;1.90;;
12177;SDS011;6152;48.728;9.256;2023-08-31T02:25:00;4.28;;;1.85;;
12177;SDS011;6152;48.728;9.256;2023-08-31T02:27:26;1.80;;;1.70;;
12177;SDS011;6152;48.728;9.256;2023-08-31T02:29:53;4.45;;;2.20;;
12177;SDS011;6152;48.728;9.256;2023-08-31T02:32:19;2.25;;;1.73;;
12177;SDS011;6152;48.728;9.256;2023-08-31T02:34:45;3.25;;;1.98;;
12177;SDS011;6152;48.728;9.256;2023-08-31T02:37:11;3.45;;;2.08;;
12177;SDS011;6152;48.728;9.256;2023-08-31T02:39:37;4.38;;;2.05;;
12177;SDS011;6152;48.728;9.256;2023-08-31T02:42:05;2.85;;;1.80;;
12177;SDS011;6152;48.728;9.256;2023-08-31T02:44:32;2.60;;;2.08;;
12177;SDS011;6152;48.728;9.256;2023-08-31T02:46:58;2.85;;;2.00;;
12177;SDS011;6152;48.728;9.256;2023-08-31T02:49:25;1.88;;;1.77;;
12177;SDS011;6152;48.728;9.256;2023-08-31T02:51:51;3.17;;;1.88;;
12177;SDS011;6152;48.728;9.256;2023-08-31T02:54:17;2.33;;;2.13;;
12177;SDS011;6152;48.728;9.256;2023-08-31T02:56:44;2.05;;;1.85;;
12177;SDS011;6152;48.728;9.256;2023-08-31T02:59:10;5.18;;;2.42;;
12177;SDS011;6152;48.728;9.256;2023-08-31T03:01:37;2.47;;;2.28;;
12177;SDS011;6152;48.728;9.256;2023-08-31T03:04:04;4.22;;;2.30;;
12177;SDS011;6152;48.728;9.256;2023-08-31T03:06:31;2.85;;;2.33;;
12177;SDS011;6152;48.728;9.256;2023-08-31T03:08:58;2.30;;;2.08;;
12177;SDS011;6152;48.728;9.256;2023-08-31T03:11:24;2.30;;;2.10;;
12177;SDS011;6152;48.728;9.256;2023-08-31T03:13:50;2.42;;;2.22;;
12177;SDS011;6152;48.728;9.256;2023-08-31T03:16:16;2.45;;;2.25;;
12177;SDS011;6152;48.728;9.256;2023-08-31T03:18:42;3.15;;;2.25;;
12177;SDS011;6152;48.728;9.256;2023-08-31T03:21:08;2.90;;;2.33;;
12177;SDS011;6152;48.728;9.256;2023-08-31T03:23:34;2.92;;;2.00;;
12177;SDS011;6152;48.728;9.256;2023-08-31T03:26:06;2.75;;;2.38;;
12177;SDS011;6152;48.728;9.256;2023-08-31T03:28:33;2.95;;;2.25;;
12177;SDS011;6152;48.728;9.256;2023-08-31T03:30:59;3.97;;;2.70;;
12177;SDS011;6152;48.728;9.256;2023-08-31T03:33:26;4.38;;;2.20;;
12177;SDS011;6152;48.728;9.256;2023-08-31T03:35:54;5.80;;;2.55;;
12177;SDS011;6152;48.728;9.256;2023-08-31T03:38:24;2.33;;;2.13;;
12177;SDS011;6152;48.728;9.256;2023-08-31T03:40:54;2.55;;;2.33;;
12177;SDS011;6152;48.728;9.256;2023-08-31T03:43:20;4.22;;;2.25;;
12177;SDS011;6152;48.728;9.256;2023-08-31T03:45:47;3.85;;;2.78;;
12177;SDS011;6152;48.728;9.256;2023-08-31T03:48:13;3.00;;;2.63;;
12177;SDS011;6152;48.728;9.256;2023-08-31T03:50:39;4.95;;;2.92;;
12177;SDS011;6152;48.728;9.256;2023-08-31T03:53:05;4.05;;;3.35;;
12177;SDS011;6152;48.728;9.256;2023-08-31T03:55:31;3.20;;;2.90;;
12177;SDS011;6152;48.728;9.256;2023-08-31T03:57:57;3.72;;;2.90;;
12177;SDS011;6152;48.728;9.256;2023-08-31T04:00:24;4.25;;;2.50;;
12177;SDS011;6152;48.728;9.256;2023-08-31T04:02:50;2.92;;;2.50;;
12177;SDS011;6152;48.728;9.256;2023-08-31T04:05:16;3.45;;;2.88;;
12177;SDS011;6152;48.728;9.256;2023-08-31T04:07:42;3.45;;;2.67;;
12177;SDS011;6152;48.728;9.256;2023-08-31T04:10:08;3.58;;;2.72;;
12177;SDS011;6152;48.728;9.256;2023-08-31T04:12:34;2.90;;;2.63;;
12177;SDS011;6152;48.728;9.256;2023-08-31T04:15:00;3.50;;;2.70;;
12177;SDS011;6152;48.728;9.256;2023-08-31T04:17:29;4.65;;;2.85;;
12177;SDS011;6152;48.728;9.256;2023-08-31T04:19:55;3.20;;;2.90;;
12177;SDS011;6152;48.728;9.256;2023-08-31T04:22:21;7.18;;;3.40;;
12177;SDS011;6152;48.728;9.256;2023-08-31T04:24:47;4.90;;;2.88;;
12177;SDS011;6152;48.728;9.256;2023-08-31T04:27:13;4.03;;;2.85;;
12177;SDS011;6152;48.728;9.256;2023-08-31T04:29:39;6.28;;;3.40;;
12177;SDS011;6152;48.728;9.256;2023-08-31T04:32:05;4.05;;;2.63;;
12177;SDS011;6152;48.728;9.256;2023-08-31T04:34:31;4.57;;;2.83;;
12177;SDS011;6152;48.728;9.256;2023-08-31T04:36:57;3.30;;;2.78;;
12177;SDS011;6152;48.728;9.256;2023-08-31T04:39:24;5.10;;;2.70;;
12177;SDS011;6152;48.728;9.256;2023-08-31T04:41:51;5.55;;;3.22;;
12177;SDS011;6152;48.728;9.256;2023-08-31T04:44:17;3.50;;;2.40;;
12177;SDS011;6152;48.728;9.256;2023-08-31T04:46:44;4.90;;;2.60;;
12177;SDS011;6152;48.728;9.256;2023-08-31T04:49:10;3.38;;;3.00;;
12177;SDS011;6152;48.728;9.256;2023-08-31T04:51:36;3.33;;;2.92;;
12177;SDS011;6152;48.728;9.256;2023-08-31T04:54:04;4.45;;;2.90;;
12177;SDS011;6152;48.728;9.256;2023-08-31T04:56:32;3.35;;;2.53;;
12177;SDS011;6152;48.728;9.256;2023-08-31T04:58:58;6.05;;;2.58;;
12177;SDS011;6152;48.728;9.256;2023-08-31T05:01:25;3.30;;;3.00;;
12177;SDS011;6152;48.728;9.256;2023-08-31T05:03:51;4.00;;;3.08;;
12177;SDS011;6152;48.728;9.256;2023-08-31T05:06:17;4.25;;;3.78;;
12177;SDS011;6152;48.728;9.256;2023-08-31T05:08:43;5.20;;;3.20;;
12177;SDS011;6152;48.728;9.256;2023-08-31T05:11:10;3.60;;;3.22;;
12177;SDS011;6152;48.728;9.256;2023-08-31T05:13:36;3.25;;;2.95;;
12177;SDS011;6152;48.728;9.256;2023-08-31T05:16:02;5.97;;;3.30;;
12177;SDS011;6152;48.728;9.256;2023-08-31T05:18:29;3.58;;;2.90;;
12177;SDS011;6152;48.728;9.256;2023-08-31T05:20:55;6.30;;;3.65;;
12177;SDS011;6152;48.728;9.256;2023-08-31T05:23:21;3.38;;;3.00;;
12177;SDS011;6152;48.728;9.256;2023-08-31T05:25:47;3.75;;;3.08;;
12177;SDS011;6152;48.728;9.256;2023-08-31T05:28:13;3.22;;;2.80;;
12177;SDS011;6152;48.728;9.256;2023-08-31T05:30:52;3.28;;;2.97;;
12177;SDS011;6152;48.728;9.256;2023-08-31T05:33:20;5.13;;;2.58;;
12177;SDS011;6152;48.728;9.256;2023-08-31T05:35:54;3.95;;;2.90;;
12177;SDS011;6152;48.728;9.256;2023-08-31T05:38:21;5.47;;;2.80;;
12177;SDS011;6152;48.728;9.256;2023-08-31T05:40:48;3.38;;;2.80;;
12177;SDS011;6152;48.728;9.256;2023-08-31T05:43:16;3.63;;;2.60;;
12177;SDS011;6152;48.728;9.256;2023-08-31T05:45:42;5.32;;;2.70;;
12177;SDS011;6152;48.728;9.256;2023-08-31T05:48:08;2.90;;;2.25;;
12177;SDS011;6152;48.728;9.256;2023-08-31T05:50:34;4.70;;;2.90;;
12177;SDS011;6152;48.728;9.256;2023-08-31T05:53:04;5.53;;;2.53;;
12177;SDS011;6152;48.728;9.256;2023-08-31T05:55:30;4.30;;;2.33;;
12177;SDS011;6152;48.728;9.256;2023-08-31T05:57:57;2.53;;;2.33;;
12177;SDS011;6152;48.728;9.256;2023-08-31T06:00:24;2.95;;;2.40;;
12177;SDS011;6152;48.728;9.256;2023-08-31T06:02:50;5.50;;;2.97;;
12177;SDS011;6152;48.728;9.256;2023-08-31T06:05:16;3.58;;;2.20;;
12177;SDS011;6152;48.728;9.256;2023-08-31T06:07:42;3.85;;;2.47;;
12177;SDS011;6152;48.728;9.256;2023-08-31T06:10:09;3.88;;;2.17;;
12177;SDS011;6152;48.728;9.256;2023-08-31T06:12:36;4.03;;;2.17;;
12177;SDS011;6152;48.728;9.256;2023-08-31T06:15:02;2.42;;;2.15;;
12177;SDS011;6152;48.728;9.256;2023-08-31T06:17:28;3.75;;;2.63;;
12177;SDS011;6152;48.728;9.256;2023-08-31T06:19:55;2.60;;;2.05;;
12177;SDS011;6152;48.728;9.256;2023-08-31T06:22:21;5.85;;;2.72;;
12177;SDS011;6152;48.728;9.256;2023-08-31T06:24:49;3.53;;;2.45;;
12177;SDS011;6152;48.728;9.256;2023-08-31T06:27:16;3.78;;;2.47;;
12177;SDS011;6152;48.728;9.256;2023-08-31T06:29:43;4.43;;;2.40;;
12177;SDS011;6152;48.728;9.256;2023-08-31T06:32:09;3.75;;;2.30;;
12177;SDS011;6152;48.728;9.256;2023-08-31T06:34:35;2.30;;;2.10;;
12177;SDS011;6152;48.728;9.256;2023-08-31T06:37:01;2.92;;;2.22;;
12177;SDS011;6152;48.728;9.256;2023-08-31T06:39:28;3.95;;;2.38;;
12177;SDS011;6152;48.728;9.256;2023-08-31T06:41:54;3.38;;;2.50;;
12177;SDS011;6152;48.728;9.256;2023-08-31T06:44:20;2.85;;;2.30;;
12177;SDS011;6152;48.728;9.256;2023-08-31T06:46:46;3.45;;;2.40;;
12177;SDS011;6152;48.728;9.256;2023-08-31T06:49:13;2.95;;;2.60;;
12177;SDS011;6152;48.728;9.256;2023-08-31T06:51:40;2.85;;;2.50;;
12177;SDS011;6152;48.728;9.256;2023-08-31T06:54:06;4.25;;;2.63;;
12177;SDS011;6152;48.728;9.256;2023-08-31T06:56:35;2.78;;;2.33;;
12177;SDS011;6152;48.728;9.256;2023-08-31T06:59:01;5.93;;;2.13;;
12177;SDS011;6152;48.728;9.256;2023-08-31T07:01:28;3.28;;;2.15;;
12177;SDS011;6152;48.728;9.256;2023-08-31T07:03:55;2.65;;;2.10;;
12177;SDS011;6152;48.728;9.256;2023-08-31T07:06:21;2.22;;;2.00;;
12177;SDS011;6152;48.728;9.256;2023-08-31T07:08:47;4.85;;;2.13;;
12177;SDS011;6152;48.728;9.256;2023-08-31T07:11:14;2.72;;;2.08;;
12177;SDS011;6152;48.728;9.256;2023-08-31T07:13:41;4.35;;;2.55;;
12177;SDS011;6152;48.728;9.256;2023-08-31T07:16:07;3.95;;;2.47;;
12177;SDS011;6152;48.728;9.256;2023-08-31T07:18:34;4.40;;;2.20;;
12177;SDS011;6152;48.728;9.256;2023-08-31T07:21:01;2.85;;;2.65;;
12177;SDS011;6152;48.728;9.256;2023-08-31T07:23:29;3.13;;;2.38;;
12177;SDS011;6152;48.728;9.256;2023-08-31T07:25:58;4.88;;;2.20;;
12177;SDS011;6152;48.728;9.256;2023-08-31T07:28:25;5.55;;;2.70;;
12177;SDS011;6152;48.728;9.256;2023-08-31T07:31:01;3.22;;;2.15;;
12177;SDS011;6152;48.728;9.256;2023-08-31T07:33:31;4.45;;;1.95;;
12177;SDS011;6152;48.728;9.256;2023-08-31T07:35:59;4.90;;;2.00;;
12177;SDS011;6152;48.728;9.256;2023-08-31T07:38:26;3.80;;;1.60;;
12177;SDS011;6152;48.728;9.256;2023-08-31T07:40:56;3.08;;;1.40;;
12177;SDS011;6152;48.728;9.256;2023-08-31T07:43:22;3.15;;;1.60;;
12177;SDS011;6152;48.728;9.256;2023-08-31T07:45:48;2.05;;;1.40;;
12177;SDS011;6152;48.728;9.256;2023-08-31T07:48:15;2.35;;;1.48;;
12177;SDS011;6152;48.728;9.256;2023-08-31T07:50:44;4.28;;;1.55;;
12177;SDS011;6152;48.728;9.256;2023-08-31T07:53:11;1.42;;;1.20;;
12177;SDS011;6152;48.728;9.256;2023-08-31T07:55:37;2.35;;;1.40;;
12177;SDS011;6152;48.728;9.256;2023-08-31T07:58:06;2.25;;;1.17;;
12177;SDS011;6152;48.728;9.256;2023-08-31T08:00:33;4.85;;;1.35;;
12177;SDS011;6152;48.728;9.256;2023-08-31T08:02:59;3.63;;;1.20;;
12177;SDS011;6152;48.728;9.256;2023-08-31T08:05:25;2.13;;;1.02;;
12177;SDS011;6152;48.728;9.256;2023-08-31T08:07:52;2.53;;;1.10;;
12177;SDS011;6152;48.728;9.256;2023-08-31T08:10:18;2.10;;;1.02;;
12177;SDS011;6152;48.728;9.256;2023-08-31T08:12:46;2.00;;;1.40;;
12177;SDS011;6152;48.728;9.256;2023-08-31T08:15:12;1.70;;;1.17;;
12177;SDS011;6152;48.728;9.256;2023-08-31T08:17:38;1.95;;;0.90;;
12177;SDS011;6152;48.728;9.256;2023-08-31T08:20:05;1.67;;;1.27;;
12177;SDS011;6152;48.728;9.256;2023-08-31T08:22:32;2.53;;;0.95;;
12177;SDS011;6152;48.728;9.256;2023-08-31T08:24:59;2.08;;;1.13;;
12177;SDS011;6152;48.728;9.256;2023-08-31T08:27:25;1.00;;;0.80;;
12177;SDS011;6152;48.728;9.256;2023-08-31T08:29:52;1.02;;;0.80;;
12177;SDS011;6152;48.728;9.256;2023-08-31T08:32:18;5.80;;;1.27;;
12177;SDS011;6152;48.728;9.256;2023-08-31T08:34:44;2.30;;;0.75;;
12177;SDS011;6152;48.728;9.256;2023-08-31T08:37:10;2.65;;;1.00;;
12177;SDS011;6152;48.728;9.256;2023-08-31T08:39:36;4.75;;;1.45;;
12177;SDS011;6152;48.728;9.256;2023-08-31T08:42:04;1.80;;;1.00;;
12177;SDS011;6152;48.728;9.256;2023-08-31T08:44:32;4.40;;;1.10;;
12177;SDS011;6152;48.728;9.256;2023-08-31T08:47:00;1.70;;;1.10;;
12177;SDS011;6152;48.728;9.256;2023-08-31T08:49:27;1.88;;;0.77;;
12177;SDS011;6152;48.728;9.256;2023-08-31T08:51:58;2.17;;;0.93;;
12177;SDS011;6152;48.728;9.256;2023-08-31T08:54:25;3.70;;;0.90;;
12177;SDS011;6152;48.728;9.256;2023-08-31T08:56:52;1.08;;;0.80;;
12177;SDS011;6152;48.728;9.256;2023-08-31T08:59:18;2.90;;;1.10;;
12177;SDS011;6152;48.728;9.256;2023-08-31T09:01:45;2.38;;;0.90;;
12177;SDS011;6152;48.728;9.256;2023-08-31T09:04:11;1.92;;;0.82;;
12177;SDS011;6152;48.728;9.256;2023-08-31T09:06:38;1.98;;;0.63;;
12177;SDS011;6152;48.728;9.256;2023-08-31T09:09:04;2.65;;;0.90;;
12177;SDS011;6152;48.728;9.256;2023-08-31T09:11:33;3.70;;;1.05;;
12177;SDS011;6152;48.728;9.256;2023-08-31T09:14:00;2.35;;;1.13;;
12177;SDS011;6152;48.728;9.256;2023-08-31T09:16:46;1.55;;;0.80;;
12177;SDS011;6152;48.728;9.256;2023-08-31T09:21:47;3.88;;;1.10;;
12177;SDS011;6152;48.728;9.256;2023-08-31T09:24:13;2.30;;;0.85;;
12177;SDS011;6152;48.728;9.256;2023-08-31T09:26:53;1.98;;;1.10;;
12177;SDS011;6152;48.728;9.256;2023-08-31T09:29:23;2.13;;;0.90;;
12177;SDS011;6152;48.728;9.256;2023-08-31T09:31:49;1.67;;;0.88;;
12177;SDS011;6152;48.728;9.256;2023-08-31T09:34:16;2.30;;;0.90;;
12177;SDS011;6152;48.728;9.256;2023-08-31T09:36:43;1.85;;;0.80;;
12177;SDS011;6152;48.728;9.256;2023-08-31T09:39:10;1.30;;;1.00;;
12177;SDS011;6152;48.728;9.256;2023-08-31T09:41:53;2.63;;;0.82;;
12177;SDS011;6152;48.728;9.256;2023-08-31T09:44:20;2.08;;;1.00;;
12177;SDS011;6152;48.728;9.256;2023-08-31T09:46:47;1.52;;;0.93;;
12177;SDS011;6152;48.728;9.256;2023-08-31T09:49:14;2.38;;;1.02;;
12177;SDS011;6152;48.728;9.256;2023-08-31T09:51:46;1.63;;;0.80;;
12177;SDS011;6152;48.728;9.256;2023-08-31T09:54:16;2.17;;;1.27;;
12177;SDS011;6152;48.728;9.256;2023-08-31T09:56:45;2.55;;;0.98;;
12177;SDS011;6152;48.728;9.256;2023-08-31T09:59:13;2.60;;;1.35;;
12177;SDS011;6152;48.728;9.256;2023-08-31T10:01:40;3.15;;;0.68;;
12177;SDS011;6152;48.728;9.256;2023-08-31T10:04:07;1.77;;;0.90;;
12177;SDS011;6152;48.728;9.256;2023-08-31T10:06:34;1.85;;;0.90;;
12177;SDS011;6152;48.728;9.256;2023-08-31T10:09:03;1.60;;;0.90;;
12177;SDS011;6152;48.728;9.256;2023-08-31T10:11:30;2.78;;;1.15;;
12177;SDS011;6152;48.728;9.256;2023-08-31T10:13:57;2.45;;;0.70;;
12177;SDS011;6152;48.728;9.256;2023-08-31T10:16:27;1.13;;;0.93;;
12177;SDS011;6152;48.728;9.256;2023-08-31T10:18:56;2.90;;;0.82;;
12177;SDS011;6152;48.728;9.256;2023-08-31T10:21:23;1.50;;;0.80;;
12177;SDS011;6152;48.728;9.256;2023-08-31T10:23:50;1.20;;;0.90;;
12177;SDS011;6152;48.728;9.256;2023-08-31T10:26:27;2.22;;;1.20;;
12177;SDS011;6152;48.728;9.256;2023-08-31T10:28:54;2.00;;;1.13;;
12177;SDS011;6152;48.728;9.256;2023-08-31T10:31:22;2.60;;;1.00;;
12177;SDS011;6152;48.728;9.256;2023-08-31T10:33:58;2.03;;;1.10;;
12177;SDS011;6152;48.728;9.256;2023-08-31T10:39:13;2.58;;;0.90;;
12177;SDS011;6152;48.728;9.256;2023-08-31T10:41:41;2.83;;;1.00;;
12177;SDS011;6152;48.728;9.256;2023-08-31T10:44:17;1.67;;;0.90;;
12177;SDS011;6152;48.728;9.256;2023-08-31T10:46:44;3.53;;;0.90;;
12177;SDS011;6152;48.728;9.256;2023-08-31T10:52:14;4.38;;;1.50;;
12177;SDS011;6152;48.728;9.256;2023-08-31T10:54:42;3.25;;;1.35;;
12177;SDS011;6152;48.728;9.256;2023-08-31T10:57:08;3.75;;;1.60;;
12177;SDS011;6152;48.728;9.256;2023-08-31T10:59:44;2.65;;;1.27;;
12177;SDS011;6152;48.728;9.256;2023-08-31T11:02:11;8.90;;;1.58;;
12177;SDS011;6152;48.728;9.256;2023-08-31T11:05:18;1.55;;;1.00;;
12177;SDS011;6152;48.728;9.256;2023-08-31T11:07:47;4.13;;;1.40;;
12177;SDS011;6152;48.728;9.256;2023-08-31T11:10:17;2.55;;;1.02;;
12177;SDS011;6152;48.728;9.256;2023-08-31T11:12:45;3.53;;;1.20;;
12177;SDS011;6152;48.728;9.256;2023-08-31T11:15:13;2.40;;;1.05;;
12177;SDS011;6152;48.728;9.256;2023-08-31T11:17:41;2.90;;;1.20;;
12177;SDS011;6152;48.728;9.256;2023-08-31T11:20:17;1.65;;;0.85;;
12177;SDS011;6152;48.728;9.256;2023-08-31T11:22:45;3.50;;;0.82;;
12177;SDS011;6152;48.728;9.256;2023-08-31T11:25:15;3.42;;;1.00;;
12177;SDS011;6152;48.728;9.256;2023-08-31T11:27:42;3.08;;;1.08;;
12177;SDS011;6152;48.728;9.256;2023-08-31T11:30:18;2.38;;;1.00;;
12177;SDS011;6152;48.728;9.256;2023-08-31T11:32:50;4.93;;;1.58;;
12177;SDS011;6152;48.728;9.256;2023-08-31T11:35:17;3.53;;;1.10;;
12177;SDS011;6152;48.728;9.256;2023-08-31T11:37:44;1.52;;;1.00;;
12177;SDS011;6152;48.728;9.256;2023-08-31T11:40:11;1.58;;;1.00;;
12177;SDS011;6152;48.728;9.256;2023-08-31T11:42:39;3.88;;;1.00;;
12177;SDS011;6152;48.728;9.256;2023-08-31T11:45:06;1.67;;;1.02;;
12177;SDS011;6152;48.728;9.256;2023-08-31T11:47:33;3.15;;;1.40;;
12177;SDS011;6152;48.728;9.256;2023-08-31T11:50:00;2.40;;;1.35;;
12177;SDS011;6152;48.728;9.256;2023-08-31T11:52:30;2.72;;;1.10;;
12177;SDS011;6152;48.728;9.256;2023-08-31T11:54:56;2.63;;;1.40;;
12177;SDS011;6152;48.728;9.256;2023-08-31T11:57:26;1.48;;;0.80;;
12177;SDS011;6152;48.728;9.256;2023-08-31T11:59:55;4.18;;;0.95;;
12177;SDS011;6152;48.728;9.256;2023-08-31T12:02:21;1.67;;;1.00;;
12177;SDS011;6152;48.728;9.256;2023-08-31T12:04:47;2.10;;;0.98;;
12177;SDS011;6152;48.728;9.256;2023-08-31T12:07:17;2.83;;;1.40;;
12177;SDS011;6152;48.728;9.256;2023-08-31T12:09:44;2.80;;;1.27;;
12177;SDS011;6152;48.728;9.256;2023-08-31T12:12:13;2.97;;;1.00;;
12177;SDS011;6152;48.728;9.256;2023-08-31T12:14:40;1.90;;;0.98;;
12177;SDS011;6152;48.728;9.256;2023-08-31T12:17:08;1.48;;;0.98;;
12177;SDS011;6152;48.728;9.256;2023-08-31T12:19:37;2.20;;;0.75;;
12177;SDS011;6152;48.728;9.256;2023-08-31T12:22:04;2.17;;;1.17;;
12177;SDS011;6152;48.728;9.256;2023-08-31T12:24:38;1.20;;;1.10;;
12177;SDS011;6152;48.728;9.256;2023-08-31T12:27:05;2.15;;;1.13;;
12177;SDS011;6152;48.728;9.256;2023-08-31T12:29:32;6.93;;;1.30;;
12177;SDS011;6152;48.728;9.256;2023-08-31T12:31:58;2.05;;;1.10;;
12177;SDS011;6152;48.728;9.256;2023-08-31T12:34:24;2.50;;;1.00;;
12177;SDS011;6152;48.728;9.256;2023-08-31T12:36:51;2.30;;;1.48;;
12177;SDS011;6152;48.728;9.256;2023-08-31T12:39:17;3.03;;;1.10;;
12177;SDS011;6152;48.728;9.256;2023-08-31T12:41:44;2.83;;;1.10;;
12177;SDS011;6152;48.728;9.256;2023-08-31T12:44:10;3.55;;;1.02;;
12177;SDS011;6152;48.728;9.256;2023-08-31T12:46:36;3.88;;;1.10;;
12177;SDS011;6152;48.728;9.256;2023-08-31T12:49:02;3.22;;;1.20;;
12177;SDS011;6152;48.728;9.256;2023-08-31T12:51:29;3.10;;;1.10;;
12177;SDS011;6152;48.728;9.256;2023-08-31T12:53:56;3.08;;;1.10;;
12177;SDS011;6152;48.728;9.256;2023-08-31T12:56:22;1.55;;;0.85;;
12177;SDS011;6152;48.728;9.256;2023-08-31T12:58:52;1.30;;;0.80;;
12177;SDS011;6152;48.728;9.256;2023-08-31T13:01:19;3.00;;;1.00;;
12177;SDS011;6152;48.728;9.256;2023-08-31T13:03:46;2.17;;;0.95;;
12177;SDS011;6152;48.728;9.256;2023-08-31T13:06:13;1.90;;;0.80;;
12177;SDS011;6152;48.728;9.256;2023-08-31T13:08:39;1.48;;;1.00;;
12177;SDS011;6152;48.728;9.256;2023-08-31T13:11:05;1.88;;;1.05;;
12177;SDS011;6152;48.728;9.256;2023-08-31T13:13:32;1.88;;;0.93;;
12177;SDS011;6152;48.728;9.256;2023-08-31T13:15:58;2.30;;;1.00;;
12177;SDS011;6152;48.728;9.256;2023-08-31T13:18:24;1.35;;;0.88;;
12177;SDS011;6152;48.728;9.256;2023-08-31T13:20:51;1.52;;;0.80;;
12177;SDS011;6152;48.728;9.256;2023-08-31T13:23:18;3.47;;;1.15;;
12177;SDS011;6152;48.728;9.256;2023-08-31T13:25:45;2.00;;;0.90;;
12177;SDS011;6152;48.728;9.256;2023-08-31T13:28:11;1.58;;;0.95;;
12177;SDS011;6152;48.728;9.256;2023-08-31T13:30:38;2.08;;;0.88;;
12177;SDS011;6152;48.728;9.256;2023-08-31T13:33:04;2.55;;;0.88;;
12177;SDS011;6152;48.728;9.256;2023-08-31T13:35:31;0.82;;;0.75;;
12177;SDS011;6152;48.728;9.256;2023-08-31T13:37:58;0.93;;;0.70;;
12177;SDS011;6152;48.728;9.256;2023-08-31T13:40:24;3.63;;;1.00;;
12177;SDS011;6152;48.728;9.256;2023-08-31T13:42:54;1.45;;;1.35;;
12177;SDS011;6152;48.728;9.256;2023-08-31T13:45:28;3.15;;;1.13;;
12177;SDS011;6152;48.728;9.256;2023-08-31T13:47:55;3.13;;;1.15;;
12177;SDS011;6152;48.728;9.256;2023-08-31T13:50:24;3.08;;;1.20;;
12177;SDS011;6152;48.728;9.256;2023-08-31T13:52:51;4.13;;;1.30;;
12177;SDS011;6152;48.728;9.256;2023-08-31T13:55:17;2.20;;;1.10;;
12177;SDS011;6152;48.728;9.256;2023-08-31T13:57:43;2.60;;;1.17;;
12177;SDS011;6152;48.728;9.256;2023-08-31T14:00:09;3.05;;;0.98;;
12177;SDS011;6152;48.728;9.256;2023-08-31T14:02:36;4.75;;;1.00;;
12177;SDS011;6152;48.728;9.256;2023-08-31T14:05:05;1.73;;;1.20;;
12177;SDS011;6152;48.728;9.256;2023-08-31T14:07:32;3.75;;;1.20;;
12177;SDS011;6152;48.728;9.256;2023-08-31T14:09:58;4.15;;;1.50;;
12177;SDS011;6152;48.728;9.256;2023-08-31T14:12:24;1.00;;;0.80;;
12177;SDS011;6152;48.728;9.256;2023-08-31T14:14:50;5.78;;;1.30;;
12177;SDS011;6152;48.728;9.256;2023-08-31T14:17:17;2.13;;;1.10;;
12177;SDS011;6152;48.728;9.256;2023-08-31T14:19:44;4.40;;;1.17;;
12177;SDS011;6152;48.728;9.256;2023-08-31T14:22:10;4.60;;;1.10;;
12177;SDS011;6152;48.728;9.256;2023-08-31T14:24:37;2.85;;;1.40;;
12177;SDS011;6152;48.728;9.256;2023-08-31T14:27:03;4.03;;;1.00;;
12177;SDS011;6152;48.728;9.256;2023-08-31T14:29:30;3.08;;;1.08;;
12177;SDS011;6152;48.728;9.256;2023-08-31T14:31:59;2.97;;;1.25;;
12177;SDS011;6152;48.728;9.256;2023-08-31T14:34:26;2.28;;;1.13;;
12177;SDS011;6152;48.728;9.256;2023-08-31T14:36:52;2.05;;;0.90;;
12177;SDS011;6152;48.728;9.256;2023-08-31T14:39:22;2.72;;;1.15;;
12177;SDS011;6152;48.728;9.256;2023-08-31T14:41:54;1.73;;;1.23;;
12177;SDS011;6152;48.728;9.256;2023-08-31T14:44:21;3.97;;;1.00;;
12177;SDS011;6152;48.728;9.256;2023-08-31T14:46:48;2.90;;;1.10;;
12177;SDS011;6152;48.728;9.256;2023-08-31T14:49:14;3.13;;;1.42;;
12177;SDS011;6152;48.728;9.256;2023-08-31T14:51:40;2.55;;;1.23;;
12177;SDS011;6152;48.728;9.256;2023-08-31T14:54:07;2.85;;;1.13;;
12177;SDS011;6152;48.728;9.256;2023-08-31T14:56:33;2.63;;;1.10;;
12177;SDS011;6152;48.728;9.256;2023-08-31T14:58:59;2.35;;;0.90;;
12177;SDS011;6152;48.728;9.256;2023-08-31T15:01:25;1.85;;;1.02;;
12177;SDS011;6152;48.728;9.256;2023-08-31T15:03:53;4.53;;;0.93;;
12177;SDS011;6152;48.728;9.256;2023-08-31T15:06:19;2.40;;;1.08;;
12177;SDS011;6152;48.728;9.256;2023-08-31T15:08:46;2.95;;;0.90;;
12177;SDS011;6152;48.728;9.256;2023-08-31T15:11:12;1.13;;;1.02;;
12177;SDS011;6152;48.728;9.256;2023-08-31T15:13:38;3.00;;;1.35;;